Orosi, California
Current Conditions -  °F | °C
As of 11:55 AM on Thursday 23 Oct 2014 (Local Time) from KVIS Reporting Station
Clear Clear  
Wind Chill: 72°   Ceiling: Unl
Heat Index: 72°   Visibility: 9mi
Dew Point: 48°   Wind: 3mph
Humidity: 43%   Direction: 230°SW
Pressure: 30.07"   Gusts: NA
Location:  36.55°N, 119.28°W
Report Text: KVIS 231855Z 23003KT 9SM CLR 22/09 A3007 RMK AO1
Loading
Personal Weather Stations






























Interactive Weather Map
Tropical Storm Tracking
New forecast layout! Learn more

10-Day Weather Forecast

Advertisements
Track Severe Weather on mobile